createdAt,value
2018-07-16T00:03:21.994Z,19.81
2018-07-16T00:05:51.084Z,19.61
2018-07-16T00:08:17.664Z,19.56
2018-07-16T00:10:46.378Z,19.19
2018-07-16T00:13:21.380Z,19.76
2018-07-16T00:15:47.647Z,20.02
2018-07-16T00:18:15.235Z,19.53
2018-07-16T00:20:42.746Z,19.39
2018-07-16T00:23:11.997Z,19.45
2018-07-16T00:25:38.330Z,19.59
2018-07-16T00:28:05.536Z,19.78
2018-07-16T00:30:34.502Z,19.61
2018-07-16T00:33:01.734Z,19.47
2018-07-16T00:35:32.843Z,19.71
2018-07-16T00:38:00.302Z,19.51
2018-07-16T00:40:28.969Z,19.51
2018-07-16T00:42:57.738Z,20.02
2018-07-16T00:45:25.290Z,20.20
2018-07-16T00:48:01.117Z,20.14
2018-07-16T00:50:27.791Z,19.70
2018-07-16T00:52:55.848Z,19.38
2018-07-16T00:55:22.157Z,19.18
2018-07-16T00:57:49.687Z,19.69
2018-07-16T01:00:19.509Z,19.46
2018-07-16T01:02:50.720Z,19.37
2018-07-16T01:05:17.043Z,19.52
2018-07-16T01:07:45.931Z,19.43
2018-07-16T01:10:13.875Z,19.13
2018-07-16T01:12:40.120Z,19.09
2018-07-16T01:15:07.409Z,18.83
2018-07-16T01:17:34.602Z,18.65
2018-07-16T01:20:01.439Z,18.93
2018-07-16T01:22:28.932Z,18.99
2018-07-16T01:24:55.804Z,19.02
2018-07-16T01:27:22.798Z,18.80
2018-07-16T01:29:49.929Z,19.27
2018-07-16T01:32:19.279Z,19.51
2018-07-16T01:34:46.427Z,19.23
2018-07-16T01:37:16.304Z,18.55
2018-07-16T01:39:49.500Z,18.35
2018-07-16T01:42:16.330Z,18.56
2018-07-16T01:44:42.546Z,19.04
2018-07-16T01:47:08.785Z,19.10
2018-07-16T01:49:35.020Z,18.59
2018-07-16T01:52:05.395Z,18.72
2018-07-16T01:54:32.277Z,18.82
2018-07-16T01:56:59.457Z,18.58
2018-07-16T01:59:25.808Z,18.31
2018-07-16T02:01:53.035Z,18.20
2018-07-16T02:04:19.184Z,18.18
2018-07-16T02:06:45.977Z,18.61
2018-07-16T02:09:12.240Z,18.49
2018-07-16T02:11:38.644Z,18.29
2018-07-16T02:14:05.911Z,18.59
2018-07-16T02:16:35.568Z,18.14
2018-07-16T02:19:02.849Z,17.81
2018-07-16T02:21:29.389Z,17.58
2018-07-16T02:23:58.195Z,18.14
2018-07-16T02:26:25.236Z,18.29
2018-07-16T02:28:51.776Z,18.12
2018-07-16T02:31:21.098Z,18.42
2018-07-16T02:33:47.377Z,18.63
2018-07-16T02:36:13.611Z,18.42
2018-07-16T02:38:39.759Z,18.53
2018-07-16T02:41:06.674Z,18.47
2018-07-16T02:43:32.919Z,18.23
2018-07-16T02:46:01.196Z,18.30
2018-07-16T02:48:28.511Z,18.30
2018-07-16T02:50:54.672Z,17.79
2018-07-16T02:53:21.682Z,17.56
2018-07-16T02:55:51.536Z,17.68
2018-07-16T02:58:18.643Z,18.01
2018-07-16T03:00:47.822Z,17.58
2018-07-16T03:03:14.419Z,17.72
2018-07-16T03:05:42.076Z,17.89
2018-07-16T03:08:10.054Z,18.08
2018-07-16T03:10:37.178Z,17.68
2018-07-16T03:13:04.462Z,17.66
2018-07-16T03:15:31.818Z,17.54
2018-07-16T03:17:58.206Z,17.99
2018-07-16T03:20:25.901Z,18.27
2018-07-16T03:22:52.319Z,18.40
2018-07-16T03:25:20.540Z,17.79
2018-07-16T03:27:51.415Z,17.71
2018-07-16T03:30:24.540Z,18.28
2018-07-16T03:32:54.615Z,18.54
2018-07-16T03:35:23.144Z,18.37
2018-07-16T03:37:52.178Z,19.02
2018-07-16T03:40:19.262Z,18.79
2018-07-16T03:45:32.110Z,18.37
2018-07-16T03:50:29.958Z,17.97
2018-07-16T03:52:58.341Z,17.95
2018-07-16T03:58:01.433Z,18.69
2018-07-16T04:00:32.383Z,18.93
2018-07-16T04:03:01.218Z,19.19
2018-07-16T04:05:29.144Z,19.07
2018-07-16T04:07:57.214Z,19.23
2018-07-16T04:10:24.300Z,18.64
2018-07-16T04:12:51.663Z,18.62
2018-07-16T04:15:20.832Z,18.82
2018-07-16T04:17:49.946Z,18.81
2018-07-16T04:20:16.272Z,19.10
2018-07-16T04:22:45.112Z,18.93
2018-07-16T04:25:13.184Z,18.52
2018-07-16T04:27:44.560Z,18.41
2018-07-16T04:30:11.556Z,18.49
2018-07-16T04:32:42.004Z,18.49
2018-07-16T04:35:09.441Z,18.58
2018-07-16T04:37:36.610Z,18.78
2018-07-16T04:40:03.428Z,19.33
2018-07-16T04:47:37.098Z,20.53
2018-07-16T04:50:03.518Z,20.81
2018-07-16T04:52:30.674Z,21.08
2018-07-16T04:54:56.949Z,21.00
2018-07-16T05:00:42.383Z,21.57
2018-07-16T05:03:08.540Z,21.71
2018-07-16T05:05:35.837Z,21.64
2018-07-16T05:08:04.505Z,21.72
2018-07-16T05:10:31.345Z,22.01
2018-07-16T05:12:58.725Z,21.93
2018-07-16T05:15:25.873Z,22.23
2018-07-16T05:17:52.104Z,22.12
2018-07-16T05:20:18.440Z,22.41
2018-07-16T05:22:45.824Z,22.39
2018-07-16T05:25:14.598Z,22.91
2018-07-16T05:27:46.436Z,23.18
2018-07-16T05:30:14.751Z,23.32
2018-07-16T05:32:43.399Z,23.59
2018-07-16T05:35:09.995Z,23.73
2018-07-16T05:37:37.110Z,23.58
2018-07-16T05:40:08.964Z,23.58
2018-07-16T05:42:35.906Z,23.98
2018-07-16T05:45:03.449Z,24.00
2018-07-16T05:47:32.440Z,24.05
2018-07-16T05:49:58.820Z,24.25
2018-07-16T05:52:25.060Z,24.41
2018-07-16T05:54:53.272Z,24.41
2018-07-16T05:59:55.681Z,24.91
2018-07-16T06:02:24.127Z,24.89
2018-07-16T06:04:51.530Z,25.03
2018-07-16T06:07:17.722Z,25.36
2018-07-16T06:09:43.778Z,25.50
2018-07-16T06:12:09.850Z,25.64
2018-07-16T06:14:35.964Z,25.74
2018-07-16T06:17:01.950Z,25.70
2018-07-16T06:19:27.958Z,25.81
2018-07-16T06:21:53.998Z,25.84
2018-07-16T06:24:20.109Z,26.08
2018-07-16T06:26:46.145Z,25.99
2018-07-16T06:29:12.117Z,26.13
2018-07-16T06:31:38.115Z,26.82
2018-07-16T06:46:41.472Z,27.85
2018-07-16T06:49:09.831Z,28.34
2018-07-16T06:51:37.961Z,28.72
2018-07-16T06:54:13.765Z,28.25
2018-07-16T06:56:42.264Z,28.52
2018-07-16T06:59:08.425Z,28.99
2018-07-16T07:01:39.145Z,29.01
2018-07-16T07:04:07.446Z,28.97
2018-07-16T07:06:33.471Z,29.68
2018-07-16T07:08:59.621Z,30.46
2018-07-16T07:11:25.759Z,30.65
2018-07-16T07:13:51.760Z,30.88
2018-07-16T07:16:17.747Z,31.36
2018-07-16T07:18:43.763Z,32.01
2018-07-16T07:21:11.849Z,31.95
2018-07-16T07:23:37.853Z,32.21
2018-07-16T07:26:03.857Z,32.20
2018-07-16T07:28:30.698Z,29.19
2018-07-16T07:30:56.666Z,27.96
2018-07-16T07:33:24.152Z,28.69
2018-07-16T07:35:53.340Z,28.20
2018-07-16T07:38:19.444Z,28.39
2018-07-16T07:40:45.555Z,27.79
2018-07-16T07:43:11.653Z,27.81
2018-07-16T07:45:37.699Z,27.53
2018-07-16T07:50:38.738Z,27.23
2018-07-16T07:53:05.048Z,27.49
2018-07-16T07:55:31.208Z,27.70
2018-07-16T07:57:57.319Z,27.53
2018-07-16T08:00:23.334Z,27.76
2018-07-16T08:02:49.434Z,28.10
2018-07-16T08:05:15.567Z,28.00
2018-07-16T08:07:41.645Z,28.42
2018-07-16T08:10:08.698Z,28.78
2018-07-16T08:12:35.533Z,28.91
2018-07-16T08:15:01.589Z,29.10
2018-07-16T08:17:28.466Z,29.49
2018-07-16T08:19:54.451Z,30.64
2018-07-16T08:22:20.500Z,31.54
2018-07-16T08:24:46.497Z,32.99
2018-07-16T08:27:12.452Z,33.28
2018-07-16T08:29:38.454Z,32.62
2018-07-16T08:32:05.537Z,32.65
2018-07-16T08:34:31.525Z,30.93
2018-07-16T08:36:57.498Z,28.53
2018-07-16T08:39:23.503Z,27.85
2018-07-16T08:41:49.475Z,27.21
2018-07-16T08:44:15.453Z,26.76
2018-07-16T08:46:41.431Z,26.59
2018-07-16T08:49:07.386Z,26.27
2018-07-16T08:51:33.351Z,26.09
2018-07-16T08:53:59.283Z,26.11
2018-07-16T08:56:25.252Z,26.03
2018-07-16T08:58:51.274Z,26.10
2018-07-16T09:01:17.307Z,25.97
2018-07-16T09:03:43.502Z,25.85
2018-07-16T09:06:09.493Z,26.01
2018-07-16T09:08:35.573Z,26.01
2018-07-16T09:11:01.656Z,25.85
2018-07-16T09:13:27.693Z,25.99
2018-07-16T09:15:53.580Z,25.94
2018-07-16T09:18:20.664Z,25.76
2018-07-16T09:20:46.629Z,25.84
2018-07-16T09:23:12.769Z,25.78
2018-07-16T09:25:38.815Z,25.61
2018-07-16T09:28:04.699Z,25.64
2018-07-16T09:30:30.647Z,25.64
2018-07-16T09:32:56.600Z,25.79
2018-07-16T09:35:22.579Z,25.84
2018-07-16T09:37:48.548Z,25.75
2018-07-16T09:40:14.487Z,25.62
2018-07-16T09:42:40.461Z,25.53
2018-07-16T09:45:06.430Z,25.53
2018-07-16T09:47:32.461Z,25.39
2018-07-16T09:49:58.445Z,25.39
2018-07-16T09:52:24.437Z,25.55
2018-07-16T09:54:50.412Z,25.40
2018-07-16T09:57:16.377Z,25.40
2018-07-16T09:59:42.368Z,25.31
2018-07-16T10:02:08.364Z,25.37
2018-07-16T10:04:34.349Z,25.30
2018-07-16T10:07:00.325Z,25.34
2018-07-16T10:09:26.318Z,25.35
2018-07-16T10:11:52.276Z,25.26
2018-07-16T10:14:18.401Z,25.26
2018-07-16T10:16:44.373Z,25.42
2018-07-16T10:19:11.266Z,25.53
2018-07-16T10:21:37.302Z,25.55
2018-07-16T10:24:03.354Z,25.53
2018-07-16T10:26:29.343Z,25.53
2018-07-16T10:28:55.350Z,25.46
2018-07-16T10:31:21.308Z,25.47
2018-07-16T10:33:47.285Z,25.44
2018-07-16T10:36:13.261Z,25.36
2018-07-16T10:38:39.268Z,25.39
2018-07-16T10:41:05.223Z,25.48
2018-07-16T10:43:31.169Z,25.35
2018-07-16T10:45:57.113Z,25.27
2018-07-16T10:48:23.103Z,25.42
2018-07-16T10:50:49.101Z,25.39
2018-07-16T10:53:15.050Z,25.29
2018-07-16T10:55:41.016Z,25.34
2018-07-16T10:58:06.958Z,25.40
2018-07-16T11:00:32.932Z,25.26
2018-07-16T11:02:58.950Z,25.28
2018-07-16T11:05:24.955Z,25.36
2018-07-16T11:07:50.827Z,25.47
2018-07-16T11:10:16.795Z,25.27
2018-07-16T11:12:42.748Z,25.34
2018-07-16T11:15:08.738Z,25.38
2018-07-16T11:17:34.682Z,25.23
2018-07-16T11:20:00.693Z,25.22
2018-07-16T11:22:26.661Z,25.21
2018-07-16T11:24:52.647Z,25.22
2018-07-16T11:27:18.604Z,25.31
2018-07-16T11:29:44.632Z,25.26
2018-07-16T11:32:10.584Z,25.22
2018-07-16T11:34:36.568Z,25.29
2018-07-16T11:37:02.523Z,25.45
2018-07-16T11:39:28.577Z,25.36
2018-07-16T11:41:54.525Z,25.25
2018-07-16T11:44:20.461Z,25.17
2018-07-16T11:46:46.482Z,25.12
2018-07-16T11:49:12.546Z,25.21
2018-07-16T11:51:38.591Z,25.39
2018-07-16T11:54:04.720Z,25.32
2018-07-16T11:56:30.791Z,25.30
2018-07-16T11:58:56.753Z,25.28
2018-07-16T12:01:22.722Z,25.54
2018-07-16T12:03:48.669Z,25.53
2018-07-16T12:06:14.642Z,25.38
2018-07-16T12:08:40.607Z,25.39
2018-07-16T12:11:06.552Z,25.27
2018-07-16T12:13:32.550Z,25.45
2018-07-16T12:15:58.600Z,25.37
2018-07-16T12:18:24.570Z,25.30
2018-07-16T12:20:50.529Z,25.35
2018-07-16T12:23:16.581Z,25.43
2018-07-16T12:25:42.634Z,25.45
2018-07-16T12:28:08.629Z,25.47
2018-07-16T12:30:34.596Z,25.39
2018-07-16T12:33:00.574Z,25.30
2018-07-16T12:35:26.537Z,25.21
2018-07-16T12:37:52.505Z,25.23
2018-07-16T12:40:18.465Z,25.29
2018-07-16T12:42:44.416Z,25.32
2018-07-16T12:45:10.401Z,25.35
2018-07-16T12:47:36.396Z,25.37
2018-07-16T12:50:02.367Z,25.32
2018-07-16T12:52:28.375Z,25.32
2018-07-16T12:54:54.393Z,25.27
2018-07-16T12:57:20.374Z,25.45
2018-07-16T12:59:46.339Z,25.39
2018-07-16T13:02:12.356Z,25.23
2018-07-16T13:04:38.353Z,25.37
2018-07-16T13:07:04.341Z,25.30
2018-07-16T13:09:31.144Z,25.37
2018-07-16T13:11:57.138Z,25.24
2018-07-16T13:14:23.137Z,25.27
2018-07-16T13:16:49.172Z,25.40
2018-07-16T13:19:15.143Z,25.38
2018-07-16T13:21:41.184Z,25.38
2018-07-16T13:24:07.188Z,25.39
2018-07-16T13:26:33.199Z,25.39
2018-07-16T13:28:59.187Z,25.55
2018-07-16T13:31:25.211Z,25.55
2018-07-16T13:33:51.233Z,25.48
2018-07-16T13:36:17.240Z,25.46
2018-07-16T13:38:43.212Z,25.58
2018-07-16T13:41:09.191Z,25.57
2018-07-16T13:43:35.184Z,25.47
2018-07-16T13:46:01.199Z,25.55
2018-07-16T13:48:27.201Z,25.60
2018-07-16T13:50:53.157Z,25.56
2018-07-16T13:53:19.108Z,25.45
2018-07-16T13:55:45.064Z,25.43
2018-07-16T13:58:11.021Z,25.52
2018-07-16T14:00:37.079Z,25.49
2018-07-16T14:03:03.305Z,25.53
2018-07-16T14:05:29.301Z,25.46
2018-07-16T14:07:55.288Z,25.41
2018-07-16T14:10:21.288Z,25.44
2018-07-16T14:12:47.350Z,25.55
2018-07-16T14:15:13.328Z,25.69
2018-07-16T14:17:39.328Z,25.51
2018-07-16T14:20:05.324Z,25.50
2018-07-16T14:22:31.418Z,25.59
2018-07-16T14:24:57.357Z,25.62
2018-07-16T14:27:23.343Z,25.61
2018-07-16T14:29:49.322Z,25.55
2018-07-16T14:32:15.285Z,25.70
2018-07-16T14:34:41.241Z,25.65
2018-07-16T14:37:07.247Z,25.70
2018-07-16T14:39:33.300Z,25.55
2018-07-16T14:41:59.254Z,25.61
2018-07-16T14:44:25.228Z,25.45
2018-07-16T14:46:51.231Z,25.49
2018-07-16T14:49:17.191Z,25.55
2018-07-16T14:51:43.141Z,25.57
2018-07-16T14:54:11.397Z,25.45
2018-07-16T14:56:37.519Z,25.41
2018-07-16T14:59:03.546Z,25.40
2018-07-16T15:01:29.528Z,25.47
2018-07-16T15:03:55.607Z,25.44
2018-07-16T15:06:21.588Z,25.58
2018-07-16T15:08:47.596Z,25.58
2018-07-16T15:11:13.652Z,25.50
2018-07-16T15:13:39.632Z,25.41
2018-07-16T15:16:05.602Z,25.42
2018-07-16T15:18:31.589Z,25.52
2018-07-16T15:20:57.903Z,25.48
2018-07-16T15:23:23.653Z,25.37
2018-07-16T15:25:49.697Z,25.60
2018-07-16T15:28:15.671Z,25.47
2018-07-16T15:30:41.648Z,25.47
2018-07-16T15:33:07.634Z,25.48
2018-07-16T15:35:33.678Z,25.52
2018-07-16T15:37:59.656Z,25.54
2018-07-16T15:40:25.634Z,25.49
2018-07-16T15:42:51.601Z,25.51
2018-07-16T15:45:17.575Z,25.57
2018-07-16T15:47:43.545Z,25.56
2018-07-16T15:50:09.506Z,25.62
2018-07-16T15:52:35.560Z,25.54
2018-07-16T15:55:01.544Z,25.49
2018-07-16T15:57:27.503Z,25.46
2018-07-16T15:59:54.715Z,25.53
2018-07-16T16:02:20.724Z,25.56
2018-07-16T16:04:46.687Z,25.57
2018-07-16T16:07:12.751Z,25.59
2018-07-16T16:09:38.765Z,25.65
2018-07-16T16:12:04.819Z,25.63
2018-07-16T16:14:30.822Z,25.55
2018-07-16T16:16:56.802Z,25.50
2018-07-16T16:19:22.811Z,25.53
2018-07-16T16:21:48.821Z,25.51
2018-07-16T16:24:14.808Z,25.50
2018-07-16T16:26:40.801Z,25.52
2018-07-16T16:29:06.816Z,25.58
2018-07-16T16:31:32.784Z,25.55
2018-07-16T16:33:58.769Z,25.61
2018-07-16T16:36:24.764Z,25.62
2018-07-16T16:38:50.754Z,25.57
2018-07-16T16:41:16.741Z,25.57
2018-07-16T16:43:42.731Z,25.59
2018-07-16T16:46:08.773Z,25.60
2018-07-16T16:48:34.754Z,25.61
2018-07-16T16:51:00.785Z,25.58
2018-07-16T16:53:26.772Z,25.65
2018-07-16T16:55:52.748Z,25.53
2018-07-16T16:58:18.696Z,25.52
2018-07-16T17:00:44.673Z,25.52
2018-07-16T17:03:10.685Z,25.47
2018-07-16T17:05:36.738Z,25.46
2018-07-16T17:08:02.699Z,25.55
2018-07-16T17:10:28.915Z,25.58
2018-07-16T17:12:54.897Z,25.53
2018-07-16T17:15:20.905Z,25.61
2018-07-16T17:17:46.857Z,25.57
2018-07-16T17:20:12.901Z,25.51
2018-07-16T17:22:38.935Z,25.60
2018-07-16T17:25:05.128Z,25.52
2018-07-16T17:27:31.124Z,25.52
2018-07-16T17:29:57.903Z,25.53
2018-07-16T17:32:23.993Z,25.55
2018-07-16T17:34:50.097Z,25.55
2018-07-16T17:37:15.972Z,25.46
2018-07-16T17:39:42.076Z,25.45
2018-07-16T17:42:08.044Z,25.56
2018-07-16T17:44:34.772Z,25.53
2018-07-16T17:47:00.766Z,25.47
2018-07-16T17:49:26.847Z,25.48
2018-07-16T17:51:52.808Z,25.49
2018-07-16T17:54:18.842Z,25.53
2018-07-16T17:56:44.918Z,25.55
2018-07-16T17:59:10.884Z,25.55
2018-07-16T18:01:36.881Z,25.51
2018-07-16T18:04:02.836Z,25.50
2018-07-16T18:06:28.867Z,25.52
2018-07-16T18:08:54.849Z,25.54
2018-07-16T18:11:20.840Z,25.48
2018-07-16T18:13:46.875Z,25.39
2018-07-16T18:16:12.889Z,25.50
2018-07-16T18:18:38.921Z,25.42
2018-07-16T18:21:04.964Z,25.39
2018-07-16T18:23:30.943Z,25.38
2018-07-16T18:25:56.890Z,25.33
2018-07-16T18:28:22.900Z,25.31
2018-07-16T18:30:48.877Z,25.28
2018-07-16T18:33:14.929Z,25.38
2018-07-16T18:35:41.049Z,25.38
2018-07-16T18:38:07.032Z,25.38
2018-07-16T18:40:32.982Z,25.35
2018-07-16T18:42:58.920Z,25.30
2018-07-16T18:45:24.876Z,25.22
2018-07-16T18:47:51.039Z,25.22
2018-07-16T18:50:17.024Z,25.31
2018-07-16T18:52:43.000Z,25.40
2018-07-16T18:55:08.958Z,25.25
2018-07-16T18:57:34.970Z,25.13
2018-07-16T19:00:00.975Z,25.08
2018-07-16T19:02:26.957Z,25.27
2018-07-16T19:04:52.914Z,25.27
2018-07-16T19:07:18.901Z,25.05
2018-07-16T19:09:44.894Z,25.07
2018-07-16T19:12:10.860Z,24.94
2018-07-16T19:14:36.839Z,24.86
2018-07-16T19:17:02.790Z,24.80
2018-07-16T19:19:28.786Z,24.66
2018-07-16T19:21:54.750Z,24.60
2018-07-16T19:24:20.777Z,24.54
2018-07-16T19:26:46.736Z,24.38
2018-07-16T19:29:12.757Z,24.36
2018-07-16T19:31:38.779Z,24.26
2018-07-16T19:34:04.756Z,24.23
2018-07-16T19:36:30.737Z,24.22
2018-07-16T19:38:56.808Z,24.19
2018-07-16T19:41:22.774Z,24.20
2018-07-16T19:43:48.768Z,24.10
2018-07-16T19:46:14.744Z,24.01
2018-07-16T19:48:40.794Z,23.89
2018-07-16T19:51:06.798Z,23.87
2018-07-16T19:53:32.741Z,23.72
2018-07-16T19:55:58.720Z,23.72
2018-07-16T19:58:24.705Z,23.66
2018-07-16T20:00:50.709Z,23.65
2018-07-16T20:03:16.684Z,23.53
2018-07-16T20:05:42.695Z,23.46
2018-07-16T20:08:08.738Z,23.35
2018-07-16T20:10:34.711Z,23.30
2018-07-16T20:13:00.809Z,23.26
2018-07-16T20:15:26.845Z,23.26
2018-07-16T20:17:52.893Z,23.11
2018-07-16T20:20:19.037Z,23.12
2018-07-16T20:22:44.980Z,23.06
2018-07-16T20:25:11.022Z,22.98
2018-07-16T20:27:36.997Z,22.86
2018-07-16T20:30:02.970Z,22.79
2018-07-16T20:32:29.017Z,22.77
2018-07-16T20:34:55.017Z,22.89
2018-07-16T20:37:20.989Z,23.14
2018-07-16T20:39:46.957Z,23.11
2018-07-16T20:42:12.936Z,23.02
2018-07-16T20:44:38.896Z,22.97
2018-07-16T20:47:04.913Z,22.77
2018-07-16T20:49:30.883Z,22.77
2018-07-16T20:51:56.851Z,22.81
2018-07-16T20:54:22.876Z,22.94
2018-07-16T20:56:48.940Z,23.16
2018-07-16T20:59:14.922Z,23.18
2018-07-16T21:01:40.919Z,23.11
2018-07-16T21:04:06.882Z,23.09
2018-07-16T21:06:32.858Z,22.90
2018-07-16T21:08:58.821Z,22.78
2018-07-16T21:11:24.805Z,22.70
2018-07-16T21:13:50.867Z,22.66
2018-07-16T21:16:16.853Z,22.86
2018-07-16T21:18:42.800Z,22.88
2018-07-16T21:21:08.786Z,22.82
2018-07-16T21:23:34.731Z,22.57
2018-07-16T21:26:00.697Z,22.25
2018-07-16T21:28:26.643Z,22.45
2018-07-16T21:30:52.885Z,22.48
2018-07-16T21:33:18.830Z,22.41
2018-07-16T21:35:44.820Z,22.66
2018-07-16T21:38:10.759Z,22.50
2018-07-16T21:40:36.958Z,22.71
2018-07-16T21:43:02.781Z,22.63
2018-07-16T21:45:28.796Z,22.70
2018-07-16T21:47:54.786Z,22.50
2018-07-16T21:50:20.744Z,22.53
2018-07-16T21:52:46.747Z,22.51
2018-07-16T21:55:12.733Z,22.35
2018-07-16T21:57:38.726Z,22.55
2018-07-16T22:00:04.706Z,22.51
2018-07-16T22:02:30.681Z,22.41
2018-07-16T22:04:56.621Z,22.60
2018-07-16T22:07:22.596Z,22.57
2018-07-16T22:09:48.570Z,22.59
2018-07-16T22:12:14.543Z,22.72
2018-07-16T22:14:40.493Z,22.70
2018-07-16T22:17:06.454Z,22.29
2018-07-16T22:19:32.392Z,22.23
2018-07-16T22:21:58.335Z,22.14
2018-07-16T22:24:24.294Z,22.07
2018-07-16T22:26:50.248Z,21.74
2018-07-16T22:29:16.228Z,21.76
2018-07-16T22:31:42.222Z,21.81
2018-07-16T22:34:08.172Z,21.93
2018-07-16T22:36:34.131Z,22.00
2018-07-16T22:39:00.135Z,21.93
2018-07-16T22:41:26.119Z,21.85
2018-07-16T22:43:52.068Z,21.87
2018-07-16T22:46:18.008Z,22.15
2018-07-16T22:48:43.946Z,22.30
2018-07-16T22:51:09.917Z,21.93
2018-07-16T22:53:35.894Z,21.67
2018-07-16T22:56:01.907Z,21.85
2018-07-16T22:58:27.880Z,21.45
2018-07-16T23:00:53.814Z,21.19
2018-07-16T23:03:19.764Z,21.58
2018-07-16T23:05:45.734Z,21.06
2018-07-16T23:08:11.707Z,21.23
2018-07-16T23:10:37.644Z,21.52
2018-07-16T23:13:03.622Z,21.13
2018-07-16T23:15:29.584Z,20.97
2018-07-16T23:17:55.558Z,21.21
2018-07-16T23:20:21.493Z,21.18
2018-07-16T23:22:47.442Z,21.53
2018-07-16T23:25:13.394Z,21.30
2018-07-16T23:27:39.337Z,21.15
2018-07-16T23:30:05.290Z,21.07
2018-07-16T23:32:31.256Z,20.94
2018-07-16T23:34:57.215Z,21.29
2018-07-16T23:37:23.155Z,21.12
2018-07-16T23:39:49.105Z,20.87
2018-07-16T23:42:15.176Z,21.02
2018-07-16T23:44:41.159Z,21.26
2018-07-16T23:47:07.122Z,21.36
2018-07-16T23:49:33.097Z,21.20
2018-07-16T23:51:59.049Z,21.29
2018-07-16T23:54:25.057Z,21.40
2018-07-16T23:56:51.003Z,21.60
2018-07-16T23:59:16.959Z,21.37
